createdAt,value
2018-05-25T00:00:29.024Z,1016.43
2018-05-25T00:01:30.411Z,1016.43
2018-05-25T00:02:31.796Z,1016.45
2018-05-25T00:03:33.185Z,1016.43
2018-05-25T00:04:34.560Z,1016.48
2018-05-25T00:05:35.939Z,1016.47
2018-05-25T00:06:37.330Z,1016.47
2018-05-25T00:07:38.720Z,1016.48
2018-05-25T00:08:40.106Z,1016.48
2018-05-25T00:09:41.490Z,1016.44
2018-05-25T00:10:42.881Z,1016.47
2018-05-25T00:11:44.275Z,1016.44
2018-05-25T00:12:45.655Z,1016.46
2018-05-25T00:13:47.041Z,1016.45
2018-05-25T00:14:48.423Z,1016.41
2018-05-25T00:15:49.807Z,1016.44
2018-05-25T00:16:51.191Z,1016.39
2018-05-25T00:17:52.586Z,1016.38
2018-05-25T00:18:53.976Z,1016.35
2018-05-25T00:19:55.359Z,1016.32
2018-05-25T00:20:56.737Z,1016.35
2018-05-25T00:21:58.133Z,1016.35
2018-05-25T00:22:59.508Z,1016.34
2018-05-25T00:24:00.903Z,1016.35
2018-05-25T00:25:02.280Z,1016.34
2018-05-25T00:26:03.668Z,1016.38
2018-05-25T00:27:05.058Z,1016.40
2018-05-25T00:28:06.445Z,1016.36
2018-05-25T00:29:07.823Z,1016.43
2018-05-25T00:30:09.213Z,1016.36
2018-05-25T00:31:10.598Z,1016.37
2018-05-25T00:32:11.994Z,1016.38
2018-05-25T00:33:13.370Z,1016.41
2018-05-25T00:34:14.763Z,1016.41
2018-05-25T00:35:16.155Z,1016.38
2018-05-25T00:36:17.547Z,1016.36
2018-05-25T00:37:18.927Z,1016.35
2018-05-25T00:38:20.324Z,1016.37
2018-05-25T00:39:21.705Z,1016.35
2018-05-25T00:40:23.085Z,1016.34
2018-05-25T00:41:24.472Z,1016.34
2018-05-25T00:42:25.856Z,1016.31
2018-05-25T00:43:27.232Z,1016.36
2018-05-25T00:44:28.615Z,1016.34
2018-05-25T00:45:29.996Z,1016.36
2018-05-25T00:46:31.378Z,1016.31
2018-05-25T00:47:32.761Z,1016.31
2018-05-25T00:48:34.138Z,1016.31
2018-05-25T00:49:35.522Z,1016.35
2018-05-25T00:50:36.911Z,1016.30
2018-05-25T00:51:38.298Z,1016.32
2018-05-25T00:52:39.685Z,1016.26
2018-05-25T00:53:41.063Z,1016.33
2018-05-25T00:54:42.448Z,1016.31
2018-05-25T00:55:43.837Z,1016.24
2018-05-25T00:56:45.219Z,1016.26
2018-05-25T00:57:46.604Z,1016.28
2018-05-25T00:58:47.996Z,1016.27
2018-05-25T00:59:49.392Z,1016.31
2018-05-25T01:00:50.777Z,1016.30
2018-05-25T01:01:52.164Z,1016.28
2018-05-25T01:02:53.548Z,1016.28
2018-05-25T01:03:54.939Z,1016.28
2018-05-25T01:04:56.318Z,1016.28
2018-05-25T01:05:57.708Z,1016.27
2018-05-25T01:06:59.089Z,1016.27
2018-05-25T01:08:00.470Z,1016.31
2018-05-25T01:09:01.852Z,1016.30
2018-05-25T01:10:03.230Z,1016.26
2018-05-25T01:11:04.620Z,1016.28
2018-05-25T01:12:06.035Z,1016.29
2018-05-25T01:13:07.415Z,1016.29
2018-05-25T01:14:08.797Z,1016.31
2018-05-25T01:15:10.633Z,1016.31
2018-05-25T01:16:12.015Z,1016.32
2018-05-25T01:17:13.405Z,1016.32
2018-05-25T01:18:14.791Z,1016.38
2018-05-25T01:19:16.197Z,1016.35
2018-05-25T01:20:17.579Z,1016.35
2018-05-25T01:21:18.973Z,1016.38
2018-05-25T01:22:20.360Z,1016.33
2018-05-25T01:23:21.744Z,1016.32
2018-05-25T01:24:23.137Z,1016.32
2018-05-25T01:25:24.522Z,1016.27
2018-05-25T01:26:25.902Z,1016.28
2018-05-25T01:27:27.290Z,1016.32
2018-05-25T01:28:28.676Z,1016.33
2018-05-25T01:29:30.072Z,1016.29
2018-05-25T01:30:31.455Z,1016.30
2018-05-25T01:31:32.844Z,1016.33
2018-05-25T01:32:34.230Z,1016.31
2018-05-25T01:33:35.613Z,1016.31
2018-05-25T01:34:37.007Z,1016.32
2018-05-25T01:35:38.408Z,1016.35
2018-05-25T01:36:39.794Z,1016.34
2018-05-25T01:37:41.189Z,1016.30
2018-05-25T01:38:42.575Z,1016.32
2018-05-25T01:39:43.970Z,1016.37
2018-05-25T01:40:45.357Z,1016.34
2018-05-25T01:41:46.733Z,1016.31
2018-05-25T01:42:48.123Z,1016.35
2018-05-25T01:43:49.503Z,1016.33
2018-05-25T01:44:50.887Z,1016.32
2018-05-25T01:45:52.275Z,1016.36
2018-05-25T01:46:53.664Z,1016.38
2018-05-25T01:47:55.056Z,1016.36
2018-05-25T01:48:56.442Z,1016.39
2018-05-25T01:49:57.831Z,1016.35
2018-05-25T01:50:59.220Z,1016.35
2018-05-25T01:52:00.600Z,1016.38
2018-05-25T01:53:01.997Z,1016.35
2018-05-25T01:54:03.375Z,1016.37
2018-05-25T01:55:04.754Z,1016.35
2018-05-25T01:56:06.140Z,1016.40
2018-05-25T01:57:07.542Z,1016.39
2018-05-25T01:58:08.920Z,1016.38
2018-05-25T01:59:10.318Z,1016.41
2018-05-25T02:00:11.701Z,1016.40
2018-05-25T02:01:13.093Z,1016.45
2018-05-25T02:02:14.478Z,1016.43
2018-05-25T02:03:15.855Z,1016.42
2018-05-25T02:04:17.248Z,1016.43
2018-05-25T02:05:18.639Z,1016.44
2018-05-25T02:06:20.025Z,1016.50
2018-05-25T02:07:21.407Z,1016.55
2018-05-25T02:08:22.795Z,1016.58
2018-05-25T02:09:24.175Z,1016.56
2018-05-25T02:10:25.557Z,1016.63
2018-05-25T02:11:26.954Z,1016.57
2018-05-25T02:12:28.343Z,1016.58
2018-05-25T02:13:29.735Z,1016.54
2018-05-25T02:14:31.117Z,1016.52
2018-05-25T02:15:32.503Z,1016.47
2018-05-25T02:16:33.887Z,1016.46
2018-05-25T02:17:35.287Z,1016.48
2018-05-25T02:18:36.675Z,1016.48
2018-05-25T02:19:38.077Z,1016.47
2018-05-25T02:20:39.472Z,1016.50
2018-05-25T02:21:40.849Z,1016.47
2018-05-25T02:22:42.222Z,1016.41
2018-05-25T02:23:43.614Z,1016.44
2018-05-25T02:24:44.998Z,1016.46
2018-05-25T02:25:46.381Z,1016.40
2018-05-25T02:26:47.766Z,1016.39
2018-05-25T02:27:49.151Z,1016.39
2018-05-25T02:28:50.542Z,1016.33
2018-05-25T02:29:51.925Z,1016.35
2018-05-25T02:30:53.318Z,1016.30
2018-05-25T02:31:54.693Z,1016.31
2018-05-25T02:32:56.085Z,1016.35
2018-05-25T02:33:57.477Z,1016.35
2018-05-25T02:34:58.863Z,1016.39
2018-05-25T02:36:00.251Z,1016.37
2018-05-25T02:37:01.637Z,1016.42
2018-05-25T02:38:03.029Z,1016.39
2018-05-25T02:39:04.415Z,1016.41
2018-05-25T02:40:05.808Z,1016.38
2018-05-25T02:41:07.193Z,1016.41
2018-05-25T02:42:08.573Z,1016.43
2018-05-25T02:43:09.967Z,1016.46
2018-05-25T02:44:11.353Z,1016.45
2018-05-25T02:45:12.740Z,1016.43
2018-05-25T02:46:14.129Z,1016.43
2018-05-25T02:47:15.515Z,1016.42
2018-05-25T02:48:16.898Z,1016.46
2018-05-25T02:49:18.280Z,1016.40
2018-05-25T02:50:19.674Z,1016.39
2018-05-25T02:51:21.062Z,1016.37
2018-05-25T02:52:22.439Z,1016.36
2018-05-25T02:53:23.826Z,1016.32
2018-05-25T02:54:25.244Z,1016.29
2018-05-25T02:55:26.593Z,1016.25
2018-05-25T02:56:27.978Z,1016.24
2018-05-25T02:57:29.364Z,1016.19
2018-05-25T02:58:30.750Z,1016.21
2018-05-25T02:59:32.137Z,1016.21
2018-05-25T03:00:33.535Z,1016.18
2018-05-25T03:01:34.927Z,1016.24
2018-05-25T03:02:36.313Z,1016.22
2018-05-25T03:03:37.709Z,1016.24
2018-05-25T03:04:39.097Z,1016.27
2018-05-25T03:05:40.485Z,1016.24
2018-05-25T03:06:41.880Z,1016.24
2018-05-25T03:07:43.264Z,1016.24
2018-05-25T03:08:44.644Z,1016.23
2018-05-25T03:09:46.030Z,1016.22
2018-05-25T03:10:47.419Z,1016.25
2018-05-25T03:11:48.804Z,1016.28
2018-05-25T03:12:50.184Z,1016.29
2018-05-25T03:13:51.574Z,1016.26
2018-05-25T03:14:52.962Z,1016.27
2018-05-25T03:15:54.350Z,1016.27
2018-05-25T03:16:55.760Z,1016.23
2018-05-25T03:17:57.140Z,1016.29
2018-05-25T03:18:58.520Z,1016.30
2018-05-25T03:19:59.915Z,1016.30
2018-05-25T03:21:01.299Z,1016.28
2018-05-25T03:22:02.688Z,1016.29
2018-05-25T03:23:04.074Z,1016.29
2018-05-25T03:24:05.456Z,1016.28
2018-05-25T03:25:06.853Z,1016.29
2018-05-25T03:26:08.277Z,1016.27
2018-05-25T03:27:09.614Z,1016.25
2018-05-25T03:28:11.016Z,1016.27
2018-05-25T03:29:12.402Z,1016.26
2018-05-25T03:30:13.787Z,1016.26
2018-05-25T03:31:15.171Z,1016.21
2018-05-25T03:32:16.562Z,1016.21
2018-05-25T03:33:17.949Z,1016.19
2018-05-25T03:34:19.345Z,1016.23
2018-05-25T03:35:20.731Z,1016.28
2018-05-25T03:36:22.129Z,1016.25
2018-05-25T03:37:23.511Z,1016.24
2018-05-25T03:38:24.894Z,1016.22
2018-05-25T03:39:26.285Z,1016.23
2018-05-25T03:40:27.675Z,1016.23
2018-05-25T03:41:29.055Z,1016.27
2018-05-25T03:42:30.453Z,1016.28
2018-05-25T03:43:31.830Z,1016.28
2018-05-25T03:44:33.219Z,1016.27
2018-05-25T03:45:34.613Z,1016.25
2018-05-25T03:46:36.002Z,1016.26
2018-05-25T03:47:37.388Z,1016.29
2018-05-25T03:48:38.773Z,1016.27
2018-05-25T03:49:40.168Z,1016.28
2018-05-25T03:50:41.568Z,1016.31
2018-05-25T03:51:42.955Z,1016.31
2018-05-25T03:52:44.342Z,1016.30
2018-05-25T03:53:45.722Z,1016.30
2018-05-25T03:54:47.119Z,1016.32
2018-05-25T03:55:48.505Z,1016.30
2018-05-25T03:56:49.904Z,1016.29
2018-05-25T03:57:51.297Z,1016.32
2018-05-25T03:58:52.695Z,1016.36
2018-05-25T03:59:54.086Z,1016.33
2018-05-25T04:00:55.479Z,1016.33
2018-05-25T04:01:56.865Z,1016.28
2018-05-25T04:02:58.262Z,1016.29
2018-05-25T04:03:59.659Z,1016.24
2018-05-25T04:05:01.040Z,1016.27
2018-05-25T04:06:02.431Z,1016.29
2018-05-25T04:07:03.814Z,1016.29
2018-05-25T04:08:05.198Z,1016.29
2018-05-25T04:09:06.928Z,1016.33
2018-05-25T04:10:08.214Z,1016.31
2018-05-25T04:11:09.605Z,1016.30
2018-05-25T04:12:10.990Z,1016.29
2018-05-25T04:13:12.375Z,1016.31
2018-05-25T04:14:13.779Z,1016.30
2018-05-25T04:15:15.160Z,1016.31
2018-05-25T04:16:16.542Z,1016.34
2018-05-25T04:17:17.938Z,1016.32
2018-05-25T04:18:19.334Z,1016.32
2018-05-25T04:19:20.720Z,1016.38
2018-05-25T04:20:22.120Z,1016.34
2018-05-25T04:21:23.507Z,1016.35
2018-05-25T04:22:24.923Z,1016.35
2018-05-25T04:23:26.297Z,1016.35
2018-05-25T04:24:27.693Z,1016.34
2018-05-25T04:25:29.075Z,1016.35
2018-05-25T04:26:30.459Z,1016.36
2018-05-25T04:27:31.853Z,1016.35
2018-05-25T04:28:33.241Z,1016.32
2018-05-25T04:29:34.633Z,1016.29
2018-05-25T04:30:36.023Z,1016.38
2018-05-25T04:31:37.427Z,1016.33
2018-05-25T04:32:38.816Z,1016.37
2018-05-25T04:33:40.209Z,1016.39
2018-05-25T04:34:41.598Z,1016.38
2018-05-25T04:35:43.045Z,1016.37
2018-05-25T04:36:44.324Z,1016.41
2018-05-25T04:37:45.713Z,1016.40
2018-05-25T04:38:47.110Z,1016.45
2018-05-25T04:39:48.488Z,1016.47
2018-05-25T04:40:49.886Z,1016.49
2018-05-25T04:41:51.270Z,1016.52
2018-05-25T04:42:52.671Z,1016.49
2018-05-25T04:43:54.052Z,1016.54
2018-05-25T04:44:55.452Z,1016.57
2018-05-25T04:45:56.848Z,1016.54
2018-05-25T04:46:58.231Z,1016.54
2018-05-25T04:47:59.626Z,1016.49
2018-05-25T04:49:01.026Z,1016.51
2018-05-25T04:50:02.416Z,1016.52
2018-05-25T04:51:03.806Z,1016.58
2018-05-25T04:52:05.204Z,1016.53
2018-05-25T04:53:06.599Z,1016.59
2018-05-25T04:54:07.999Z,1016.59
2018-05-25T04:55:09.396Z,1016.55
2018-05-25T04:56:10.793Z,1016.53
2018-05-25T04:57:12.191Z,1016.56
2018-05-25T04:58:13.582Z,1016.60
2018-05-25T04:59:14.984Z,1016.58
2018-05-25T05:00:16.380Z,1016.48
2018-05-25T05:01:17.777Z,1016.48
2018-05-25T05:02:19.172Z,1016.49
2018-05-25T05:03:20.582Z,1016.47
2018-05-25T05:04:21.981Z,1016.55
2018-05-25T05:05:23.377Z,1016.51
2018-05-25T05:06:24.791Z,1016.47
2018-05-25T05:07:26.189Z,1016.48
2018-05-25T05:08:27.601Z,1016.47
2018-05-25T05:09:28.986Z,1016.46
2018-05-25T05:10:30.397Z,1016.40
2018-05-25T05:11:31.790Z,1016.47
2018-05-25T05:12:33.195Z,1016.49
2018-05-25T05:13:34.596Z,1016.47
2018-05-25T05:14:36.001Z,1016.47
2018-05-25T05:15:37.389Z,1016.45
2018-05-25T05:16:38.791Z,1016.48
2018-05-25T05:17:40.187Z,1016.48
2018-05-25T05:18:41.591Z,1016.52
2018-05-25T05:19:42.988Z,1016.52
2018-05-25T05:20:44.385Z,1016.48
2018-05-25T05:21:45.792Z,1016.52
2018-05-25T05:22:47.187Z,1016.50
2018-05-25T05:23:48.580Z,1016.48
2018-05-25T05:24:49.979Z,1016.55
2018-05-25T05:25:51.381Z,1016.60
2018-05-25T05:26:52.772Z,1016.63
2018-05-25T05:27:54.168Z,1016.66
2018-05-25T05:28:55.567Z,1016.68
2018-05-25T05:29:56.982Z,1016.75
2018-05-25T05:30:58.374Z,1016.65
2018-05-25T05:31:59.776Z,1016.66
2018-05-25T05:33:01.174Z,1016.68
2018-05-25T05:34:02.582Z,1016.70
2018-05-25T05:35:03.962Z,1016.70
2018-05-25T05:36:05.353Z,1016.68
2018-05-25T05:37:06.763Z,1016.71
2018-05-25T05:38:08.154Z,1016.71
2018-05-25T05:39:09.548Z,1016.64
2018-05-25T05:40:10.953Z,1016.48
2018-05-25T05:41:12.359Z,1016.49
2018-05-25T05:42:13.749Z,1016.59
2018-05-25T05:43:15.147Z,1016.72
2018-05-25T05:44:16.544Z,1016.40
2018-05-25T05:45:17.956Z,1016.77
2018-05-25T05:46:19.349Z,1016.78
2018-05-25T05:47:20.749Z,1016.85
2018-05-25T05:48:22.147Z,1016.82
2018-05-25T05:49:23.549Z,1016.80
2018-05-25T05:50:24.951Z,1016.84
2018-05-25T05:51:26.355Z,1016.82
2018-05-25T05:52:27.749Z,1016.86
2018-05-25T05:53:29.158Z,1016.86
2018-05-25T05:54:30.573Z,1016.75
2018-05-25T05:55:31.989Z,1016.79
2018-05-25T05:56:33.385Z,1016.90
2018-05-25T05:57:34.784Z,1016.91
2018-05-25T05:58:36.890Z,1016.85
2018-05-25T05:59:38.290Z,1016.76
2018-05-25T06:00:39.691Z,1016.75
2018-05-25T06:01:41.082Z,1016.75
2018-05-25T06:02:42.490Z,1016.52
2018-05-25T06:03:43.894Z,1016.52
2018-05-25T06:04:45.286Z,1016.53
2018-05-25T06:05:46.696Z,1016.53
2018-05-25T06:06:48.098Z,1016.51
2018-05-25T06:07:49.507Z,1016.55
2018-05-25T06:08:50.930Z,1016.58
2018-05-25T06:09:52.323Z,1016.54
2018-05-25T06:10:53.724Z,1016.54
2018-05-25T06:11:55.126Z,1016.48
2018-05-25T06:12:56.519Z,1016.53
2018-05-25T06:13:57.927Z,1016.51
2018-05-25T06:14:59.335Z,1016.51
2018-05-25T06:16:00.730Z,1016.49
2018-05-25T06:17:02.153Z,1016.55
2018-05-25T06:18:03.545Z,1016.58
2018-05-25T06:19:04.948Z,1016.51
2018-05-25T06:20:06.353Z,1016.51
2018-05-25T06:21:07.751Z,1016.50
2018-05-25T06:22:09.160Z,1016.53
2018-05-25T06:23:10.565Z,1016.55
2018-05-25T06:24:11.982Z,1016.52
2018-05-25T06:25:13.382Z,1016.49
2018-05-25T06:26:14.793Z,1016.58
2018-05-25T06:27:16.191Z,1016.53
2018-05-25T06:28:17.586Z,1016.47
2018-05-25T06:29:18.991Z,1016.51
2018-05-25T06:30:20.400Z,1016.51
2018-05-25T06:31:21.814Z,1016.58
2018-05-25T06:32:23.210Z,1016.58
2018-05-25T06:33:24.600Z,1016.57
2018-05-25T06:34:26.020Z,1016.55
2018-05-25T06:35:27.418Z,1016.61
2018-05-25T06:36:28.835Z,1016.56
2018-05-25T06:37:30.239Z,1016.51
2018-05-25T06:38:31.636Z,1016.53
2018-05-25T06:39:33.039Z,1016.51
2018-05-25T06:40:34.433Z,1016.50
2018-05-25T06:41:35.832Z,1016.56
2018-05-25T06:42:37.235Z,1016.50
2018-05-25T06:43:38.645Z,1016.46
2018-05-25T06:44:40.043Z,1016.49
2018-05-25T06:45:41.450Z,1016.40
2018-05-25T06:46:42.863Z,1016.48
2018-05-25T06:47:44.263Z,1016.46
2018-05-25T06:48:45.667Z,1016.46
2018-05-25T06:49:47.056Z,1016.47
2018-05-25T06:50:48.454Z,1016.47
2018-05-25T06:51:49.857Z,1016.46
2018-05-25T06:52:51.252Z,1016.45
2018-05-25T06:53:52.653Z,1016.50
2018-05-25T06:54:54.048Z,1016.45
2018-05-25T06:55:55.447Z,1016.48
2018-05-25T06:56:56.856Z,1016.53
2018-05-25T06:57:58.315Z,1016.46
2018-05-25T06:58:59.660Z,1016.48
2018-05-25T07:00:01.061Z,1016.46
2018-05-25T07:01:02.453Z,1016.50
2018-05-25T07:02:03.853Z,1016.45
2018-05-25T07:03:05.258Z,1016.49
2018-05-25T07:04:06.651Z,1016.50
2018-05-25T07:05:08.050Z,1016.44
2018-05-25T07:06:09.455Z,1016.50
2018-05-25T07:07:10.863Z,1016.50
2018-05-25T07:08:12.238Z,1016.47
2018-05-25T07:09:13.645Z,1016.48
2018-05-25T07:10:15.089Z,1016.49
2018-05-25T07:11:16.479Z,1016.43
2018-05-25T07:12:17.872Z,1016.42
2018-05-25T07:13:19.278Z,1016.45
2018-05-25T07:14:20.669Z,1016.41
2018-05-25T07:15:22.076Z,1016.40
2018-05-25T07:16:23.479Z,1016.40
2018-05-25T07:17:24.880Z,1016.41
2018-05-25T07:18:26.290Z,1016.36
2018-05-25T07:19:27.689Z,1016.42
2018-05-25T07:20:29.098Z,1016.38
2018-05-25T07:21:30.490Z,1016.42
2018-05-25T07:22:31.882Z,1016.40
2018-05-25T07:23:33.282Z,1016.37
2018-05-25T07:24:34.690Z,1016.38
2018-05-25T07:25:36.102Z,1016.36
2018-05-25T07:26:37.484Z,1016.33
2018-05-25T07:27:38.878Z,1016.34
2018-05-25T07:28:40.282Z,1016.33
2018-05-25T07:29:41.678Z,1016.30
2018-05-25T07:30:43.083Z,1016.43
2018-05-25T07:31:44.471Z,1016.35
2018-05-25T07:32:45.873Z,1016.30
2018-05-25T07:33:47.262Z,1016.33
2018-05-25T07:34:48.661Z,1016.27
2018-05-25T07:35:50.067Z,1016.30
2018-05-25T07:36:51.467Z,1016.27
2018-05-25T07:37:52.867Z,1016.31
2018-05-25T07:38:54.269Z,1016.32
2018-05-25T07:39:55.661Z,1016.24
2018-05-25T07:40:57.054Z,1016.26
2018-05-25T07:41:58.465Z,1016.33
2018-05-25T07:43:01.221Z,1016.34
2018-05-25T07:44:02.619Z,1016.28
2018-05-25T07:45:04.031Z,1016.29
2018-05-25T07:46:05.429Z,1016.26
2018-05-25T07:47:06.822Z,1016.28
2018-05-25T07:48:08.228Z,1016.27
2018-05-25T07:49:09.626Z,1016.24
2018-05-25T07:50:11.024Z,1016.20
2018-05-25T07:51:12.420Z,1016.18
2018-05-25T07:52:13.816Z,1016.24
2018-05-25T07:53:15.367Z,1016.21
2018-05-25T07:54:16.780Z,1016.24
2018-05-25T07:55:18.171Z,1016.27
2018-05-25T07:56:19.579Z,1016.24
2018-05-25T07:57:20.970Z,1016.22
2018-05-25T07:58:22.369Z,1016.25
2018-05-25T07:59:23.769Z,1016.27
2018-05-25T08:00:25.159Z,1016.22
2018-05-25T08:01:26.592Z,1016.29
2018-05-25T08:02:29.080Z,1016.30
2018-05-25T08:03:30.481Z,1016.32
2018-05-25T08:04:31.883Z,1016.33
2018-05-25T08:05:33.560Z,1016.34
2018-05-25T08:06:35.746Z,1016.36
2018-05-25T08:07:37.139Z,1016.34
2018-05-25T08:08:38.527Z,1016.35
2018-05-25T08:09:39.949Z,1016.37
2018-05-25T08:10:41.352Z,1016.29
2018-05-25T08:11:42.752Z,1016.36
2018-05-25T08:12:44.164Z,1016.39
2018-05-25T08:13:45.562Z,1016.37
2018-05-25T08:14:47.776Z,1016.33
2018-05-25T08:15:49.805Z,1016.32
2018-05-25T08:16:51.200Z,1016.32
2018-05-25T08:17:52.613Z,1016.34
2018-05-25T08:18:54.013Z,1016.29
2018-05-25T08:19:55.436Z,1016.30
2018-05-25T08:20:56.941Z,1016.32
2018-05-25T08:21:58.398Z,1016.30
2018-05-25T08:22:59.688Z,1016.34
2018-05-25T08:24:01.113Z,1016.29
2018-05-25T08:25:02.495Z,1016.30
2018-05-25T08:26:03.906Z,1016.32
2018-05-25T08:27:05.307Z,1016.28
2018-05-25T08:28:06.711Z,1016.29
2018-05-25T08:29:08.103Z,1016.26
2018-05-25T08:30:09.505Z,1016.24
2018-05-25T08:31:10.903Z,1016.28
2018-05-25T08:32:12.317Z,1016.25
2018-05-25T08:33:13.704Z,1016.27
2018-05-25T08:34:15.114Z,1016.22
2018-05-25T08:35:16.517Z,1016.22
2018-05-25T08:36:17.935Z,1016.25
2018-05-25T08:37:19.320Z,1016.24
2018-05-25T08:38:20.729Z,1016.27
2018-05-25T08:39:22.919Z,1016.23
2018-05-25T08:40:24.321Z,1016.28
2018-05-25T08:41:25.727Z,1016.26
2018-05-25T08:42:27.149Z,1016.24
2018-05-25T08:43:28.551Z,1016.22
2018-05-25T08:44:29.971Z,1016.29
2018-05-25T08:45:31.385Z,1016.28
2018-05-25T08:46:32.790Z,1016.29
2018-05-25T08:47:34.194Z,1016.23
2018-05-25T08:48:35.600Z,1016.24
2018-05-25T08:49:37.006Z,1016.23
2018-05-25T08:50:38.406Z,1016.26
2018-05-25T08:51:39.788Z,1016.26
2018-05-25T08:52:41.198Z,1016.28
2018-05-25T08:53:42.592Z,1016.22
2018-05-25T08:54:43.996Z,1016.21
2018-05-25T08:55:45.384Z,1016.22
2018-05-25T08:56:46.790Z,1016.24
2018-05-25T08:57:48.200Z,1016.29
2018-05-25T08:58:49.594Z,1016.29
2018-05-25T08:59:51.015Z,1016.29
2018-05-25T09:00:52.420Z,1016.25
2018-05-25T09:01:53.817Z,1016.22
2018-05-25T09:02:55.224Z,1016.26
2018-05-25T09:03:56.621Z,1016.29
2018-05-25T09:04:58.026Z,1016.24
2018-05-25T09:05:59.429Z,1016.28
2018-05-25T09:07:00.829Z,1016.28
2018-05-25T09:08:02.240Z,1016.31
2018-05-25T09:09:03.635Z,1016.24
2018-05-25T09:10:05.049Z,1016.29
2018-05-25T09:11:06.448Z,1016.25
2018-05-25T09:12:07.847Z,1016.24
2018-05-25T09:13:09.245Z,1016.23
2018-05-25T09:14:10.650Z,1016.20
2018-05-25T09:15:12.051Z,1016.22
2018-05-25T09:16:13.449Z,1016.22
2018-05-25T09:17:14.847Z,1016.21
2018-05-25T09:18:16.260Z,1016.22
2018-05-25T09:19:17.664Z,1016.20
2018-05-25T09:20:19.056Z,1016.19
2018-05-25T09:21:20.457Z,1016.21
2018-05-25T09:22:21.880Z,1016.25
2018-05-25T09:23:23.266Z,1016.24
2018-05-25T09:24:24.672Z,1016.18
2018-05-25T09:25:26.062Z,1016.17
2018-05-25T09:26:27.464Z,1016.18
2018-05-25T09:27:28.868Z,1016.25
2018-05-25T09:28:30.264Z,1016.23
2018-05-25T09:29:31.667Z,1016.20
2018-05-25T09:30:33.121Z,1016.22
2018-05-25T09:31:34.475Z,1016.25
2018-05-25T09:32:35.885Z,1016.22
2018-05-25T09:33:37.292Z,1016.21
2018-05-25T09:34:38.702Z,1016.16
2018-05-25T09:35:40.103Z,1016.19
2018-05-25T09:36:41.527Z,1016.13
2018-05-25T09:37:42.891Z,1016.10
2018-05-25T09:38:44.295Z,1016.11
2018-05-25T09:39:45.703Z,1016.11
2018-05-25T09:40:47.108Z,1016.12
2018-05-25T09:41:48.515Z,1016.10
2018-05-25T09:42:49.914Z,1016.10
2018-05-25T09:43:51.324Z,1016.04
2018-05-25T09:44:52.730Z,1016.08
2018-05-25T09:45:54.128Z,1016.14
2018-05-25T09:46:55.560Z,1016.08
2018-05-25T09:47:56.953Z,1016.07
2018-05-25T09:48:58.355Z,1016.12
2018-05-25T09:49:59.758Z,1016.12
2018-05-25T09:51:01.168Z,1016.19
2018-05-25T09:52:02.574Z,1016.12
2018-05-25T09:53:03.993Z,1016.07
2018-05-25T09:54:05.399Z,1016.07
2018-05-25T09:55:06.795Z,1016.08
2018-05-25T09:56:08.207Z,1016.11
2018-05-25T09:57:09.599Z,1016.11
2018-05-25T09:58:11.848Z,1016.07
2018-05-25T09:59:13.251Z,1016.00
2018-05-25T10:00:14.656Z,1016.04
2018-05-25T10:01:16.061Z,1016.03
2018-05-25T10:02:17.458Z,1016.06
2018-05-25T10:03:18.862Z,1016.02
2018-05-25T10:04:20.279Z,1015.98
2018-05-25T10:05:21.675Z,1015.97
2018-05-25T10:06:23.063Z,1016.02
2018-05-25T10:07:24.471Z,1016.01
2018-05-25T10:08:25.868Z,1016.03
2018-05-25T10:09:27.267Z,1016.01
2018-05-25T10:10:28.673Z,1015.97
2018-05-25T10:11:30.080Z,1015.96
2018-05-25T10:12:31.485Z,1015.95
2018-05-25T10:13:32.877Z,1015.92
2018-05-25T10:14:34.284Z,1015.91
2018-05-25T10:15:35.699Z,1015.90
2018-05-25T10:16:37.089Z,1015.91
2018-05-25T10:17:38.486Z,1015.91
2018-05-25T10:18:39.894Z,1015.85
2018-05-25T10:19:41.297Z,1015.89
2018-05-25T10:20:42.697Z,1015.90
2018-05-25T10:21:44.108Z,1015.87
2018-05-25T10:22:45.530Z,1015.87
2018-05-25T10:23:46.935Z,1015.89
2018-05-25T10:24:48.337Z,1015.83
2018-05-25T10:25:49.739Z,1015.79
2018-05-25T10:26:51.137Z,1015.80
2018-05-25T10:27:52.541Z,1015.85
2018-05-25T10:28:53.949Z,1015.80
2018-05-25T10:29:55.352Z,1015.80
2018-05-25T10:30:56.762Z,1015.85
2018-05-25T10:31:58.162Z,1015.90
2018-05-25T10:32:59.565Z,1015.81
2018-05-25T10:34:00.981Z,1015.76
2018-05-25T10:35:02.442Z,1015.78
2018-05-25T10:36:03.769Z,1015.73
2018-05-25T10:37:05.188Z,1015.73
2018-05-25T10:38:06.588Z,1015.76
2018-05-25T10:39:08.005Z,1015.82
2018-05-25T10:40:09.389Z,1015.81
2018-05-25T10:41:11.724Z,1015.84
2018-05-25T10:42:13.022Z,1015.70
2018-05-25T10:43:14.418Z,1015.77
2018-05-25T10:44:15.827Z,1015.77
2018-05-25T10:45:17.234Z,1015.76
2018-05-25T10:46:18.644Z,1015.78
2018-05-25T10:47:20.890Z,1015.75
2018-05-25T10:48:22.296Z,1015.80
2018-05-25T10:49:23.686Z,1015.80
2018-05-25T10:50:25.086Z,1015.78
2018-05-25T10:51:26.492Z,1015.79
2018-05-25T10:52:27.888Z,1015.78
2018-05-25T10:53:29.291Z,1015.79
2018-05-25T10:54:30.686Z,1015.78
2018-05-25T10:55:32.083Z,1015.78
2018-05-25T10:56:33.484Z,1015.79
2018-05-25T10:57:34.890Z,1015.81
2018-05-25T10:58:36.291Z,1015.78
2018-05-25T10:59:37.688Z,1015.83
2018-05-25T11:00:39.091Z,1015.85
2018-05-25T11:01:40.481Z,1015.74
2018-05-25T11:02:41.883Z,1015.76
2018-05-25T11:03:43.329Z,1015.74
2018-05-25T11:04:44.693Z,1015.81
2018-05-25T11:05:46.101Z,1015.79
2018-05-25T11:06:47.508Z,1015.81
2018-05-25T11:07:48.887Z,1015.78
2018-05-25T11:08:50.299Z,1015.76
2018-05-25T11:09:51.709Z,1015.70
2018-05-25T11:10:53.098Z,1015.68
2018-05-25T11:11:54.501Z,1015.70
2018-05-25T11:12:55.898Z,1015.70
2018-05-25T11:13:57.304Z,1015.71
2018-05-25T11:14:58.719Z,1015.67
2018-05-25T11:16:00.124Z,1015.68
2018-05-25T11:17:01.515Z,1015.64
2018-05-25T11:18:02.913Z,1015.68
2018-05-25T11:19:04.342Z,1015.69
2018-05-25T11:20:05.744Z,1015.75
2018-05-25T11:21:07.158Z,1015.71
2018-05-25T11:22:08.577Z,1015.71
2018-05-25T11:23:09.990Z,1015.73
2018-05-25T11:24:11.390Z,1015.76
2018-05-25T11:25:12.792Z,1015.76
2018-05-25T11:26:14.194Z,1015.74
2018-05-25T11:27:15.601Z,1015.74
2018-05-25T11:28:16.991Z,1015.75
2018-05-25T11:29:18.399Z,1015.66
2018-05-25T11:30:19.810Z,1015.72
2018-05-25T11:31:21.204Z,1015.80
2018-05-25T11:32:22.604Z,1015.78
2018-05-25T11:33:24.007Z,1015.74
2018-05-25T11:34:25.417Z,1015.82
2018-05-25T11:35:26.815Z,1015.86
2018-05-25T11:36:28.232Z,1015.83
2018-05-25T11:37:29.631Z,1015.78
2018-05-25T11:38:31.052Z,1015.72
2018-05-25T11:39:32.448Z,1015.74
2018-05-25T11:40:33.851Z,1015.76
2018-05-25T11:41:35.254Z,1015.67
2018-05-25T11:42:36.663Z,1015.62
2018-05-25T11:43:38.026Z,1015.56
2018-05-25T11:44:39.416Z,1015.57
2018-05-25T11:45:40.820Z,1015.60
2018-05-25T11:46:42.186Z,1015.53
2018-05-25T11:47:43.545Z,1015.59
2018-05-25T11:48:44.915Z,1015.48
2018-05-25T11:49:46.317Z,1015.54
2018-05-25T11:50:47.732Z,1015.53
2018-05-25T11:51:49.145Z,1015.53
2018-05-25T11:52:50.551Z,1015.51
2018-05-25T11:53:51.956Z,1015.57
2018-05-25T11:54:53.369Z,1015.54
2018-05-25T11:55:54.771Z,1015.58
2018-05-25T11:56:56.175Z,1015.50
2018-05-25T11:57:57.581Z,1015.63
2018-05-25T11:58:58.979Z,1015.58
2018-05-25T12:00:00.387Z,1015.63
2018-05-25T12:01:01.796Z,1015.62
2018-05-25T12:02:03.196Z,1015.65
2018-05-25T12:03:04.589Z,1015.68
2018-05-25T12:04:05.995Z,1015.69
2018-05-25T12:05:07.396Z,1015.67
2018-05-25T12:06:08.801Z,1015.65
2018-05-25T12:07:10.207Z,1015.70
2018-05-25T12:08:11.609Z,1015.65
2018-05-25T12:09:13.010Z,1015.69
2018-05-25T12:10:14.416Z,1015.68
2018-05-25T12:11:15.822Z,1015.64
2018-05-25T12:12:17.224Z,1015.57
2018-05-25T12:13:18.614Z,1015.69
2018-05-25T12:14:20.023Z,1015.66
2018-05-25T12:15:21.442Z,1015.58
2018-05-25T12:16:22.842Z,1015.66
2018-05-25T12:17:24.235Z,1015.58
2018-05-25T12:18:25.639Z,1015.69
2018-05-25T12:19:27.043Z,1015.61
2018-05-25T12:20:28.442Z,1015.54
2018-05-25T12:21:29.867Z,1015.52
2018-05-25T12:22:31.261Z,1015.51